Time;durP1;ratioP1;P1;durP2;ratioP2;P2;SDS_P1;SDS_P2;PMS_P1;PMS_P2;Temp;Humidity;BMP_temperature;BMP_pressure;BME280_temperature;BME280_humidity;BME280_pressure;Samples;Min_cycle;Max_cycle;Signal;HPM_P1;HPM_P2
2022/01/07 00:00:20;;;;;;;27.20;6.80;;;3.90;99.90;;;;;;5097561;27;273629;-69
2022/01/07 00:02:49;;;;;;;19.50;6.38;;;3.80;99.90;;;;;;5102861;28;20059;-69
2022/01/07 00:05:15;;;;;;;27.92;7.40;;;3.80;99.90;;;;;;5063585;27;238782;-68
2022/01/07 00:07:42;;;;;;;21.05;6.88;;;3.80;99.90;;;;;;5102365;28;20055;-70
2022/01/07 00:10:11;;;;;;;14.82;5.72;;;3.80;99.90;;;;;;5100107;27;253901;-68
2022/01/07 00:12:38;;;;;;;21.75;6.10;;;3.80;99.90;;;;;;5109673;27;20039;-68
2022/01/07 00:15:05;;;;;;;18.48;6.32;;;3.80;99.90;;;;;;5096751;27;254407;-69
2022/01/07 00:17:32;;;;;;;20.67;6.72;;;3.80;99.90;;;;;;5102183;28;20055;-69
2022/01/07 00:19:58;;;;;;;22.45;6.25;;;3.80;99.90;;;;;;5095125;27;267592;-68
2022/01/07 00:22:26;;;;;;;16.85;5.70;;;3.80;99.90;;;;;;5104265;28;20051;-69
2022/01/07 00:24:52;;;;;;;16.38;6.10;;;3.80;99.90;;;;;;5083408;28;35570;-69
2022/01/07 00:27:18;;;;;;;14.30;5.13;;;3.80;99.90;;;;;;5095279;28;20052;-68
2022/01/07 00:29:44;;;;;;;17.98;5.70;;;3.80;99.90;;;;;;5097034;27;269142;-69
2022/01/07 00:32:11;;;;;;;24.73;6.57;;;3.70;99.90;;;;;;5110682;27;20066;-69
2022/01/07 00:34:37;;;;;;;21.70;6.32;;;3.70;99.90;;;;;;5091438;27;253714;-69
2022/01/07 00:37:03;;;;;;;20.27;6.20;;;3.70;99.90;;;;;;5102870;28;20047;-69
2022/01/07 00:39:29;;;;;;;18.92;5.93;;;3.60;99.90;;;;;;5092083;27;267575;-69
2022/01/07 00:41:55;;;;;;;22.00;5.60;;;3.60;99.90;;;;;;5112519;27;20055;-69
2022/01/07 00:44:22;;;;;;;19.40;6.15;;;3.50;99.90;;;;;;5108299;27;131590;-69
2022/01/07 00:46:48;;;;;;;17.55;6.43;;;3.50;99.90;;;;;;5102496;27;20513;-69
2022/01/07 00:49:20;;;;;;;19.95;6.35;;;3.50;99.90;;;;;;5088573;27;274382;-69
2022/01/07 00:51:48;;;;;;;22.85;6.32;;;3.40;99.90;;;;;;5114372;27;20058;-69
2022/01/07 00:54:15;;;;;;;17.23;6.18;;;3.30;99.90;;;;;;5089289;27;100486;-69
2022/01/07 00:56:41;;;;;;;19.25;6.60;;;3.30;99.90;;;;;;5106212;27;20330;-69
2022/01/07 00:59:08;;;;;;;20.10;6.35;;;3.20;99.90;;;;;;5088299;27;255876;-69
2022/01/07 01:01:35;;;;;;;19.40;6.28;;;3.20;99.90;;;;;;5100228;28;20059;-69
2022/01/07 01:04:02;;;;;;;20.88;6.63;;;3.10;99.90;;;;;;5072105;27;243848;-69
2022/01/07 01:06:28;;;;;;;17.25;6.45;;;3.00;99.90;;;;;;5097169;27;20051;-69
2022/01/07 01:08:54;;;;;;;22.17;7.35;;;3.00;99.90;;;;;;5092929;27;271057;-70
2022/01/07 01:11:20;;;;;;;19.60;6.45;;;3.00;99.90;;;;;;5102518;28;20059;-69
2022/01/07 01:13:46;;;;;;;18.92;6.85;;;3.00;99.90;;;;;;5082739;27;251684;-70
2022/01/07 01:16:13;;;;;;;19.40;7.35;;;2.90;99.90;;;;;;5100129;28;20047;-69
2022/01/07 01:18:39;;;;;;;21.03;7.27;;;2.90;99.90;;;;;;5084279;27;268508;-69
2022/01/07 01:21:05;;;;;;;17.73;6.97;;;2.90;99.90;;;;;;5101721;27;20040;-69
2022/01/07 01:23:32;;;;;;;21.25;6.95;;;2.90;99.90;;;;;;5103006;28;20048;-70
2022/01/07 01:25:58;;;;;;;22.25;7.10;;;2.80;99.90;;;;;;5076773;28;20042;-69
2022/01/07 01:28:24;;;;;;;19.27;6.80;;;2.80;99.90;;;;;;5103220;28;20044;-69
2022/01/07 01:30:51;;;;;;;20.70;7.07;;;2.80;99.90;;;;;;5076204;27;252901;-70
2022/01/07 01:33:18;;;;;;;24.98;7.50;;;2.80;99.90;;;;;;5105128;28;20051;-69
2022/01/07 01:35:44;;;;;;;19.73;7.03;;;2.80;99.90;;;;;;5099674;27;267840;-69
2022/01/07 01:38:11;;;;;;;19.33;7.38;;;2.80;99.90;;;;;;5104382;28;20043;-70
2022/01/07 01:40:37;;;;;;;19.35;7.32;;;2.70;99.90;;;;;;5077894;28;146687;-69
2022/01/07 01:43:03;;;;;;;24.45;8.30;;;2.70;99.90;;;;;;5103959;28;20047;-69
2022/01/07 01:45:30;;;;;;;22.17;7.90;;;2.70;99.90;;;;;;5095071;27;263784;-69
2022/01/07 01:47:56;;;;;;;21.08;8.00;;;2.70;99.90;;;;;;5103843;28;20370;-70
2022/01/07 01:50:23;;;;;;;24.23;7.88;;;2.70;99.90;;;;;;5091742;27;257261;-68
2022/01/07 01:52:56;;;;;;;23.85;8.68;;;2.70;99.90;;;;;;5116851;27;20499;-69
2022/01/07 01:55:25;;;;;;;22.48;8.25;;;2.60;99.90;;;;;;5071070;27;253831;-69
2022/01/07 01:57:52;;;;;;;23.65;8.68;;;2.60;99.90;;;;;;5104297;28;20053;-69
2022/01/07 02:00:20;;;;;;;21.90;8.25;;;2.60;99.90;;;;;;5089634;27;260747;-69
2022/01/07 02:02:47;;;;;;;27.10;9.20;;;2.60;99.90;;;;;;5117946;27;20043;-68
2022/01/07 02:05:13;;;;;;;16.73;6.47;;;2.60;99.90;;;;;;5081712;27;266512;-69
2022/01/07 02:07:40;;;;;;;21.10;8.38;;;2.60;99.90;;;;;;5107138;27;20055;-69
2022/01/07 02:10:09;;;;;;;20.63;7.88;;;2.60;99.90;;;;;;5091446;27;250858;-69
2022/01/07 02:12:35;;;;;;;25.25;8.95;;;2.60;99.90;;;;;;5099602;28;20047;-70
2022/01/07 02:15:03;;;;;;;22.38;9.02;;;2.60;99.90;;;;;;5085855;27;123631;-70
2022/01/07 02:17:29;;;;;;;22.83;9.27;;;2.50;99.90;;;;;;5085831;28;20055;-69
2022/01/07 02:19:56;;;;;;;24.70;9.63;;;2.50;99.90;;;;;;5107055;27;64595;-70
2022/01/07 02:22:25;;;;;;;26.33;9.93;;;2.50;99.90;;;;;;5097521;28;20385;-70
2022/01/07 02:24:52;;;;;;;22.80;10.38;;;2.50;99.90;;;;;;5078080;28;253614;-69
2022/01/07 02:27:20;;;;;;;21.38;9.35;;;2.50;99.90;;;;;;5099077;28;20051;-69
2022/01/07 02:29:49;;;;;;;19.80;10.05;;;2.50;99.90;;;;;;5094954;27;270743;-69
2022/01/07 02:32:17;;;;;;;19.15;9.73;;;2.50;99.90;;;;;;5102375;28;20508;-70
2022/01/07 02:34:44;;;;;;;23.73;11.55;;;2.50;99.90;;;;;;5090165;28;74159;-69
2022/01/07 02:37:12;;;;;;;21.80;10.23;;;2.50;99.90;;;;;;5097429;28;20055;-69
2022/01/07 02:39:39;;;;;;;20.77;11.27;;;2.50;99.90;;;;;;5103239;27;199694;-70
2022/01/07 02:42:05;;;;;;;21.33;10.52;;;2.50;99.90;;;;;;5098718;28;20051;-69
2022/01/07 02:44:32;;;;;;;24.70;11.23;;;2.50;99.90;;;;;;5103943;27;20054;-69
2022/01/07 02:46:59;;;;;;;18.70;9.85;;;2.50;99.90;;;;;;5098117;28;20051;-69
2022/01/07 02:49:25;;;;;;;24.13;11.52;;;2.50;99.90;;;;;;5086556;27;265271;-69
2022/01/07 02:51:51;;;;;;;22.13;11.20;;;2.50;99.90;;;;;;5104188;28;20062;-69
2022/01/07 02:54:17;;;;;;;24.20;11.02;;;2.50;99.90;;;;;;5087058;28;256881;-69
2022/01/07 02:56:44;;;;;;;23.02;10.32;;;2.50;99.90;;;;;;5109579;27;20047;-69
2022/01/07 02:59:10;;;;;;;22.27;12.10;;;2.50;99.90;;;;;;5085138;28;274237;-70
2022/01/07 03:01:39;;;;;;;25.42;11.35;;;2.50;99.90;;;;;;5112496;28;20051;-70
2022/01/07 03:04:06;;;;;;;20.40;11.80;;;2.50;99.90;;;;;;5069219;28;253286;-70
2022/01/07 03:06:33;;;;;;;21.38;10.82;;;2.50;99.90;;;;;;5104254;28;20070;-69
2022/01/07 03:08:59;;;;;;;20.33;11.40;;;2.50;99.90;;;;;;5086924;28;266389;-69
2022/01/07 03:11:26;;;;;;;23.95;11.52;;;2.50;99.90;;;;;;5112529;28;20069;-70
2022/01/07 03:13:52;;;;;;;22.70;11.53;;;2.50;99.90;;;;;;5088932;27;266021;-69
2022/01/07 03:16:18;;;;;;;23.67;12.30;;;2.50;99.90;;;;;;5095809;28;20393;-69
2022/01/07 03:18:44;;;;;;;22.73;11.93;;;2.50;99.90;;;;;;5084566;28;258809;-69
2022/01/07 03:21:10;;;;;;;23.92;12.55;;;2.60;99.90;;;;;;5097530;28;20035;-70
2022/01/07 03:23:37;;;;;;;23.63;12.27;;;2.60;99.90;;;;;;5080066;28;253161;-69
2022/01/07 03:26:04;;;;;;;19.80;10.38;;;2.60;99.90;;;;;;5117127;28;20055;-71
2022/01/07 03:28:30;;;;;;;21.30;11.98;;;2.60;99.90;;;;;;5104096;28;20440;-70
2022/01/07 03:30:56;;;;;;;26.83;14.02;;;2.60;99.90;;;;;;5096167;27;266535;-70
2022/01/07 03:33:23;;;;;;;25.75;12.75;;;2.60;99.90;;;;;;5107170;28;20043;-71
2022/01/07 03:35:49;;;;;;;25.52;13.60;;;2.60;99.90;;;;;;5087158;27;221112;-69
2022/01/07 03:38:15;;;;;;;23.70;12.00;;;2.60;99.90;;;;;;5105051;28;20047;-70
2022/01/07 03:40:41;;;;;;;27.65;13.88;;;2.60;99.90;;;;;;5102909;27;260576;-70
2022/01/07 03:43:08;;;;;;;23.10;13.32;;;2.60;99.90;;;;;;5106669;28;20067;-70
2022/01/07 03:45:34;;;;;;;23.25;13.27;;;2.60;99.90;;;;;;5079220;27;261503;-70
2022/01/07 03:48:00;;;;;;;26.15;14.10;;;2.70;99.90;;;;;;5105348;28;20054;-70
2022/01/07 03:50:28;;;;;;;23.38;13.43;;;2.70;99.90;;;;;;5093054;27;112983;-70
2022/01/07 03:52:55;;;;;;;23.63;13.68;;;2.70;99.90;;;;;;5106533;27;20050;-69
2022/01/07 03:55:24;;;;;;;23.38;12.90;;;2.70;99.90;;;;;;5086686;27;208784;-70
2022/01/07 03:57:51;;;;;;;26.92;13.70;;;2.70;99.90;;;;;;5102161;28;20059;-70
2022/01/07 04:00:23;;;;;;;23.60;12.05;;;2.70;99.90;;;;;;5092637;27;254818;-70
2022/01/07 04:02:50;;;;;;;19.80;10.95;;;2.70;99.90;;;;;;5103816;28;20439;-70
2022/01/07 04:05:20;;;;;;;21.60;12.60;;;2.80;99.90;;;;;;5080155;27;274500;-70
2022/01/07 04:07:46;;;;;;;23.92;12.40;;;2.70;99.90;;;;;;5102045;27;20082;-70
2022/01/07 04:10:12;;;;;;;26.27;13.52;;;2.80;99.90;;;;;;5098261;27;268955;-70
2022/01/07 04:12:39;;;;;;;22.20;12.02;;;2.80;99.90;;;;;;5107458;27;20047;-70
2022/01/07 04:15:10;;;;;;;22.85;13.27;;;2.70;99.90;;;;;;5097830;27;268661;-70
2022/01/07 04:17:41;;;;;;;22.45;12.77;;;2.80;99.90;;;;;;5103971;28;20051;-70
2022/01/07 04:20:10;;;;;;;25.80;13.15;;;2.80;99.90;;;;;;5090802;27;167208;-70
2022/01/07 04:22:36;;;;;;;23.38;11.55;;;2.70;99.90;;;;;;5105185;28;20047;-70
2022/01/07 04:25:08;;;;;;;23.13;11.82;;;2.70;99.90;;;;;;5092864;27;268345;-70
2022/01/07 04:27:35;;;;;;;19.55;10.98;;;2.70;99.90;;;;;;5104549;28;20148;-70
2022/01/07 04:30:01;;;;;;;19.00;11.32;;;2.70;99.90;;;;;;5086453;27;236279;-70
2022/01/07 04:32:28;;;;;;;19.42;11.50;;;2.70;99.90;;;;;;5106249;27;20051;-70
2022/01/07 04:34:54;;;;;;;22.58;13.35;;;2.70;99.90;;;;;;5097945;27;274106;-69
2022/01/07 04:37:20;;;;;;;21.38;11.55;;;2.70;99.90;;;;;;5101370;28;20488;-72
2022/01/07 04:39:46;;;;;;;19.70;10.73;;;2.70;99.90;;;;;;5093586;27;273659;-69
2022/01/07 04:42:12;;;;;;;23.13;12.43;;;2.80;99.90;;;;;;5111437;27;20044;-69
2022/01/07 04:44:41;;;;;;;21.23;11.88;;;2.80;99.90;;;;;;5091393;27;38603;-70
2022/01/07 04:47:08;;;;;;;20.15;10.93;;;2.80;99.90;;;;;;5096162;28;20373;-70
2022/01/07 04:49:35;;;;;;;24.65;12.98;;;2.80;99.90;;;;;;5093905;27;252763;-69
2022/01/07 04:52:05;;;;;;;21.63;13.65;;;2.80;99.90;;;;;;5112440;27;20044;-69
2022/01/07 04:54:32;;;;;;;24.00;11.77;;;2.80;99.90;;;;;;5094953;27;262159;-69
2022/01/07 04:56:59;;;;;;;22.67;12.18;;;2.90;99.90;;;;;;5101312;28;20305;-69
2022/01/07 04:59:25;;;;;;;20.98;11.15;;;2.90;99.90;;;;;;5087925;27;255345;-69
2022/01/07 05:01:54;;;;;;;20.05;12.73;;;2.90;99.90;;;;;;5113230;27;20031;-70
2022/01/07 05:04:20;;;;;;;19.27;11.20;;;2.90;99.90;;;;;;5068017;27;259610;-70
2022/01/07 05:06:47;;;;;;;15.38;9.57;;;2.90;99.90;;;;;;5088287;28;20503;-70
2022/01/07 05:09:17;;;;;;;19.67;11.65;;;2.90;99.90;;;;;;5088422;27;271608;-70
2022/01/07 05:11:45;;;;;;;21.40;12.27;;;2.90;99.90;;;;;;5103545;28;20235;-69
2022/01/07 05:14:12;;;;;;;18.67;9.77;;;3.00;99.90;;;;;;5110314;27;22101;-70
2022/01/07 05:16:39;;;;;;;19.92;10.57;;;2.90;99.90;;;;;;5111066;27;20043;-69
2022/01/07 05:19:05;;;;;;;19.05;10.75;;;3.00;99.90;;;;;;5110224;27;30390;-69
2022/01/07 05:21:31;;;;;;;21.33;11.32;;;3.00;99.90;;;;;;5101201;28;20082;-69
2022/01/07 05:23:58;;;;;;;19.27;10.48;;;3.00;99.90;;;;;;5086163;27;264085;-69
2022/01/07 05:26:24;;;;;;;18.60;11.27;;;3.00;99.90;;;;;;5111595;27;20062;-70
2022/01/07 05:28:53;;;;;;;17.13;10.80;;;3.00;99.90;;;;;;5084680;27;264153;-69
2022/01/07 05:31:22;;;;;;;20.70;10.40;;;3.00;99.90;;;;;;5116869;27;20046;-69
2022/01/07 05:33:50;;;;;;;16.03;9.33;;;3.00;99.90;;;;;;5098480;27;273363;-69
2022/01/07 05:36:16;;;;;;;18.13;9.85;;;3.00;99.90;;;;;;5106489;27;20052;-70
2022/01/07 05:38:42;;;;;;;18.42;11.20;;;3.00;99.90;;;;;;5082321;27;268841;-70
2022/01/07 05:41:08;;;;;;;20.90;11.32;;;3.00;99.90;;;;;;5096326;28;20055;-70
2022/01/07 05:43:35;;;;;;;17.27;9.38;;;3.00;99.90;;;;;;5082517;28;259221;-70
2022/01/07 05:46:01;;;;;;;15.55;9.77;;;3.00;99.90;;;;;;5093355;28;20442;-70
2022/01/07 05:48:27;;;;;;;19.50;9.60;;;3.00;99.90;;;;;;5104546;28;20051;-70
2022/01/07 05:50:53;;;;;;;20.27;10.15;;;3.00;99.90;;;;;;5085548;28;55042;-69
2022/01/07 05:53:19;;;;;;;18.27;10.18;;;3.00;99.90;;;;;;5105373;28;20062;-69
2022/01/07 05:55:45;;;;;;;18.48;8.93;;;3.00;99.90;;;;;;5095781;27;257102;-69
2022/01/07 05:58:11;;;;;;;18.55;9.52;;;3.00;99.90;;;;;;5101071;28;20059;-69
2022/01/07 06:00:38;;;;;;;18.70;10.45;;;3.00;99.90;;;;;;5093408;27;256882;-69
2022/01/07 06:03:04;;;;;;;18.98;9.38;;;3.00;99.90;;;;;;5102180;28;20062;-69
2022/01/07 06:05:30;;;;;;;16.15;9.45;;;3.00;99.90;;;;;;5065337;28;260090;-69
2022/01/07 06:07:56;;;;;;;15.05;9.77;;;3.00;99.90;;;;;;5104777;28;20055;-69
2022/01/07 06:10:22;;;;;;;23.33;9.10;;;3.00;99.90;;;;;;5093278;27;277007;-70
2022/01/07 06:12:48;;;;;;;16.63;9.40;;;3.00;99.90;;;;;;5101005;28;20044;-69
2022/01/07 06:15:14;;;;;;;16.20;8.98;;;3.00;99.90;;;;;;5096723;27;261554;-69
2022/01/07 06:17:40;;;;;;;14.27;9.00;;;3.00;99.90;;;;;;5104306;27;20051;-70
2022/01/07 06:20:08;;;;;;;17.67;9.50;;;3.00;99.90;;;;;;5086553;27;214437;-70
2022/01/07 06:22:36;;;;;;;19.17;9.70;;;3.00;99.90;;;;;;5101156;28;20052;-70
2022/01/07 06:25:04;;;;;;;18.75;9.88;;;3.00;99.90;;;;;;5094063;27;271707;-70
2022/01/07 06:27:30;;;;;;;19.10;10.05;;;3.00;99.90;;;;;;5098043;28;20051;-69
2022/01/07 06:29:57;;;;;;;18.10;10.15;;;3.00;99.90;;;;;;5094583;27;194690;-69
2022/01/07 06:32:24;;;;;;;19.17;10.88;;;3.10;99.90;;;;;;5097047;28;20056;-70
2022/01/07 06:34:52;;;;;;;17.42;10.07;;;3.10;99.90;;;;;;5095545;27;252663;-70
2022/01/07 06:37:18;;;;;;;17.35;10.93;;;3.10;99.90;;;;;;5107820;28;20070;-70
2022/01/07 06:39:44;;;;;;;16.08;8.60;;;3.10;99.90;;;;;;5089627;27;253674;-70
2022/01/07 06:42:10;;;;;;;17.60;10.57;;;3.10;99.90;;;;;;5103716;28;20453;-70
2022/01/07 06:44:37;;;;;;;18.35;10.85;;;3.10;99.90;;;;;;5092274;27;272722;-68
2022/01/07 06:47:04;;;;;;;16.45;10.40;;;3.10;99.90;;;;;;5111685;28;20043;-69
2022/01/07 06:49:30;;;;;;;16.48;10.05;;;3.20;99.90;;;;;;5091838;27;253052;-68
2022/01/07 06:51:57;;;;;;;16.55;10.15;;;3.10;99.90;;;;;;5102076;28;20051;-68
2022/01/07 06:54:24;;;;;;;14.80;10.55;;;3.20;99.90;;;;;;5090873;27;271787;-69
2022/01/07 06:56:50;;;;;;;14.93;9.18;;;3.20;99.90;;;;;;5115534;27;20055;-69
2022/01/07 06:59:17;;;;;;;18.65;10.75;;;3.20;99.90;;;;;;5105227;27;141975;-69
2022/01/07 07:01:47;;;;;;;19.02;12.10;;;3.20;99.90;;;;;;5096980;28;20059;-70
2022/01/07 07:04:15;;;;;;;17.80;11.27;;;3.30;99.90;;;;;;5075821;27;258067;-69
2022/01/07 07:06:41;;;;;;;17.23;11.65;;;3.30;99.90;;;;;;5106951;28;20055;-70
2022/01/07 07:09:08;;;;;;;19.30;11.52;;;3.30;99.90;;;;;;5090239;27;262990;-69
2022/01/07 07:11:34;;;;;;;17.92;11.63;;;3.30;99.90;;;;;;5117605;27;20048;-69
2022/01/07 07:14:00;;;;;;;19.02;11.85;;;3.30;99.90;;;;;;5097027;27;271354;-69
2022/01/07 07:16:26;;;;;;;18.70;11.85;;;3.40;99.90;;;;;;5116032;27;20066;-69
2022/01/07 07:18:53;;;;;;;19.65;11.35;;;3.40;99.90;;;;;;5087289;27;257546;-69
2022/01/07 07:21:19;;;;;;;21.75;12.40;;;3.40;99.90;;;;;;5118234;27;20052;-69
2022/01/07 07:23:45;;;;;;;20.00;12.93;;;3.50;99.90;;;;;;5090189;27;261640;-70
2022/01/07 07:26:11;;;;;;;19.67;12.93;;;3.50;99.90;;;;;;5121492;27;20047;-69
2022/01/07 07:28:38;;;;;;;23.35;13.80;;;3.50;99.90;;;;;;5089599;28;263105;-68
2022/01/07 07:31:10;;;;;;;20.75;12.30;;;3.50;99.90;;;;;;5101262;28;20439;-69
2022/01/07 07:36:29;;;;;;;24.90;14.38;;;3.50;99.90;;;;;;5116720;27;20047;-69
2022/01/07 07:38:56;;;;;;;24.52;14.73;;;3.50;99.90;;;;;;5089809;27;260050;-69
2022/01/07 07:41:23;;;;;;;22.60;14.93;;;3.60;99.90;;;;;;5116319;27;20048;-68
2022/01/07 07:43:50;;;;;;;26.73;15.43;;;3.60;99.90;;;;;;5091214;27;268132;-69
2022/01/07 07:46:17;;;;;;;24.15;15.82;;;3.60;99.90;;;;;;5086564;28;20062;-69
2022/01/07 07:48:46;;;;;;;20.75;13.88;;;3.60;99.90;;;;;;5085943;27;259870;-68
2022/01/07 07:51:13;;;;;;;22.83;15.43;;;3.70;99.90;;;;;;5115267;27;20047;-68
2022/01/07 07:53:40;;;;;;;24.80;14.70;;;3.70;99.90;;;;;;5089102;27;268910;-69
2022/01/07 07:56:08;;;;;;;24.08;15.15;;;3.70;99.90;;;;;;5116436;27;20499;-68
2022/01/07 07:58:34;;;;;;;27.45;17.70;;;3.70;99.90;;;;;;5088048;27;265039;-68
2022/01/07 08:01:01;;;;;;;27.40;15.57;;;3.80;99.90;;;;;;5111971;27;20357;-69
2022/01/07 08:03:27;;;;;;;24.83;15.98;;;3.70;99.90;;;;;;5105054;28;20043;-69
2022/01/07 08:05:53;;;;;;;26.50;16.65;;;3.80;99.90;;;;;;5080461;27;256583;-69
2022/01/07 08:08:19;;;;;;;27.58;17.17;;;3.80;99.90;;;;;;5101889;28;20059;-69
2022/01/07 08:10:53;;;;;;;28.60;17.02;;;3.80;99.90;;;;;;5078599;27;239708;-69
2022/01/07 08:15:57;;;;;;;27.40;17.50;;;3.80;99.90;;;;;;5096870;28;20512;-69
2022/01/07 08:16:19;;;;;;;28.33;17.73;;;3.90;99.90;;;;;;5089080;28;20089;-69
2022/01/07 08:18:51;;;;;;;25.63;16.30;;;3.90;99.90;;;;;;5086416;27;253298;-69
2022/01/07 08:21:18;;;;;;;31.75;19.58;;;3.90;99.90;;;;;;5117341;27;20352;-69
2022/01/07 08:23:44;;;;;;;37.13;18.47;;;4.00;99.90;;;;;;5081903;27;267585;-68
2022/01/07 08:26:13;;;;;;;27.20;17.85;;;4.00;99.90;;;;;;5100496;28;20054;-69
2022/01/07 08:28:44;;;;;;;26.40;16.53;;;4.00;99.90;;;;;;5086643;27;260515;-69
2022/01/07 08:36:26;;;;;;;31.27;18.77;;;4.10;99.90;;;;;;5117136;27;20507;-69
2022/01/07 08:38:53;;;;;;;30.67;20.30;;;4.10;99.90;;;;;;5084520;27;262965;-70
2022/01/07 08:41:27;;;;;;;29.55;19.30;;;4.20;99.90;;;;;;5110454;27;20063;-70
2022/01/07 08:43:54;;;;;;;28.50;19.45;;;4.20;99.90;;;;;;5086811;27;251609;-69
2022/01/07 08:46:20;;;;;;;35.50;20.85;;;4.30;99.90;;;;;;5099650;27;20055;-70
2022/01/07 08:48:46;;;;;;;34.83;21.67;;;4.30;99.90;;;;;;5087330;27;250008;-69
2022/01/07 08:51:13;;;;;;;33.50;21.55;;;4.30;99.90;;;;;;5120130;27;20475;-70
2022/01/07 08:53:39;;;;;;;33.35;21.42;;;4.30;99.90;;;;;;5086379;27;252493;-70
2022/01/07 08:56:07;;;;;;;38.50;21.65;;;4.30;99.90;;;;;;5117561;27;20294;-70
2022/01/07 08:58:34;;;;;;;37.17;21.35;;;4.40;99.90;;;;;;5093698;27;271769;-70
2022/01/07 09:01:00;;;;;;;31.15;21.25;;;4.40;99.90;;;;;;5100443;28;20040;-70
2022/01/07 09:03:26;;;;;;;35.92;21.02;;;4.40;99.90;;;;;;5108150;28;20086;-68
2022/01/07 09:05:53;;;;;;;35.63;19.38;;;4.50;99.90;;;;;;5064721;28;251914;-69
2022/01/07 09:08:21;;;;;;;38.10;21.00;;;4.50;99.90;;;;;;5106487;28;20442;-69
2022/01/07 09:10:48;;;;;;;34.15;20.38;;;4.50;99.90;;;;;;5089086;27;94263;-69
2022/01/07 09:13:14;;;;;;;31.40;19.50;;;4.60;99.90;;;;;;5099313;28;20567;-69
2022/01/07 09:15:41;;;;;;;33.17;21.08;;;4.60;99.90;;;;;;5095570;27;271371;-69
2022/01/07 09:18:10;;;;;;;31.92;18.85;;;4.60;99.90;;;;;;5104399;28;20052;-70
2022/01/07 09:20:38;;;;;;;32.88;22.23;;;4.60;99.90;;;;;;5098098;27;253422;-68
2022/01/07 09:23:05;;;;;;;45.53;21.63;;;4.60;99.90;;;;;;5106175;27;20086;-69
2022/01/07 09:25:31;;;;;;;34.72;18.88;;;4.60;99.90;;;;;;5098407;27;264271;-69
2022/01/07 09:27:57;;;;;;;34.17;20.85;;;4.70;99.90;;;;;;5106760;28;20055;-69
2022/01/07 09:30:23;;;;;;;32.78;20.23;;;4.70;99.90;;;;;;5109880;27;54938;-68
2022/01/07 09:32:49;;;;;;;35.75;21.15;;;4.70;99.90;;;;;;5102853;28;20044;-69
2022/01/07 09:35:16;;;;;;;34.22;21.08;;;4.80;99.90;;;;;;5095839;27;259170;-69
2022/01/07 09:37:43;;;;;;;32.53;21.15;;;4.80;99.90;;;;;;5103037;28;20048;-69
2022/01/07 09:40:11;;;;;;;34.42;21.42;;;4.90;99.90;;;;;;5093948;27;267887;-69
2022/01/07 09:42:38;;;;;;;33.40;20.13;;;4.90;99.90;;;;;;5100973;28;20396;-70
2022/01/07 09:45:05;;;;;;;30.25;19.48;;;4.90;99.90;;;;;;5090807;27;131566;-70
2022/01/07 09:47:31;;;;;;;31.63;21.08;;;4.90;99.90;;;;;;5101302;28;20074;-71
2022/01/07 09:49:57;;;;;;;43.30;22.52;;;4.90;99.90;;;;;;5088107;27;82703;-72
2022/01/07 09:52:26;;;;;;;36.08;22.27;;;4.80;99.90;;;;;;5100780;28;20044;-73
2022/01/07 09:54:52;;;;;;;41.35;23.55;;;4.80;99.90;;;;;;5102594;27;153673;-73
2022/01/07 09:57:19;;;;;;;35.90;22.58;;;4.80;99.90;;;;;;5106116;27;20475;-72
2022/01/07 09:59:53;;;;;;;32.58;19.35;;;4.80;99.90;;;;;;5089383;27;100923;-72
2022/01/07 10:02:19;;;;;;;25.40;15.52;;;4.80;99.90;;;;;;5100561;28;20054;-72
2022/01/07 10:04:45;;;;;;;26.30;15.82;;;4.80;99.90;;;;;;5066358;28;148606;-71
2022/01/07 10:07:25;;;;;;;20.75;12.15;;;4.70;99.90;;;;;;5097897;28;20048;-72
2022/01/07 10:10:18;;;;;;;15.75;8.48;;;4.70;99.90;;;;;;5088058;27;84393;-71
2022/01/07 10:12:59;;;;;;;13.70;6.68;;;4.60;99.90;;;;;;5099407;28;20044;-71
2022/01/07 10:15:28;;;;;;;13.57;4.68;;;4.50;99.90;;;;;;5108665;27;49537;-71
2022/01/07 10:18:00;;;;;;;12.10;3.80;;;4.50;99.90;;;;;;5104347;28;20491;-71
2022/01/07 10:20:28;;;;;;;;;;;4.50;99.90;;;;;;5085913;27;271897;-71
2022/01/07 10:23:06;;;;;;;8.15;2.00;;;4.50;99.90;;;;;;5097714;28;19916;-72
2022/01/07 10:25:38;;;;;;;9.60;2.10;;;4.50;99.90;;;;;;5085292;27;182497;-71
2022/01/07 10:28:06;;;;;;;8.20;1.80;;;4.60;99.90;;;;;;5093495;28;20059;-70
2022/01/07 10:30:35;;;;;;;13.80;1.92;;;4.60;99.90;;;;;;5085615;27;63242;-71
2022/01/07 10:33:17;;;;;;;7.68;1.80;;;4.60;99.90;;;;;;5119847;27;20044;-70
2022/01/07 10:35:44;;;;;;;7.85;1.73;;;4.70;99.90;;;;;;5083470;28;213331;-71
2022/01/07 10:38:15;;;;;;;6.95;1.70;;;4.70;99.90;;;;;;5099700;28;20047;-70
2022/01/07 10:40:42;;;;;;;7.70;2.20;;;4.70;99.90;;;;;;5102185;27;264947;-71
2022/01/07 10:43:32;;;;;;;8.38;2.42;;;4.70;99.90;;;;;;5101655;28;20052;-71
2022/01/07 10:46:11;;;;;;;9.75;3.05;;;4.70;99.90;;;;;;5080289;28;258673;-71
2022/01/07 10:48:46;;;;;;;9.98;3.20;;;4.70;99.90;;;;;;5077958;28;265683;-70
2022/01/07 10:51:17;;;;;;;13.05;4.10;;;4.70;99.90;;;;;;5098107;28;20051;-70
2022/01/07 10:53:54;;;;;;;9.73;3.53;;;4.80;99.90;;;;;;5081403;27;259642;-70
2022/01/07 10:56:22;;;;;;;12.82;4.40;;;4.70;99.90;;;;;;5095133;28;20054;-71
2022/01/07 10:58:56;;;;;;;12.70;5.10;;;4.70;99.90;;;;;;5082808;27;263214;-72
2022/01/07 11:01:29;;;;;;;14.65;5.40;;;4.70;99.90;;;;;;5097638;28;20147;-72
2022/01/07 11:03:57;;;;;;;13.05;5.70;;;4.60;99.90;;;;;;5083005;28;262264;-72
2022/01/07 11:06:25;;;;;;;14.75;6.60;;;4.70;99.90;;;;;;5093264;28;20051;-71
2022/01/07 11:08:53;;;;;;;14.50;6.22;;;4.80;99.90;;;;;;5082959;28;267867;-72
2022/01/07 11:11:21;;;;;;;17.02;6.78;;;4.80;99.90;;;;;;5115510;27;20432;-71
2022/01/07 11:13:48;;;;;;;16.33;7.18;;;4.80;99.90;;;;;;5082532;27;270456;-71
2022/01/07 11:16:15;;;;;;;16.23;6.82;;;4.80;99.90;;;;;;5096410;28;20351;-71
2022/01/07 11:18:43;;;;;;;16.23;8.25;;;4.80;99.90;;;;;;5084176;27;276515;-71
2022/01/07 11:21:10;;;;;;;16.40;7.95;;;4.80;99.90;;;;;;5115738;27;20511;-71
2022/01/07 11:23:38;;;;;;;15.88;8.25;;;4.80;99.90;;;;;;5077933;27;264900;-71
2022/01/07 11:26:09;;;;;;;16.60;8.77;;;4.80;99.90;;;;;;5113390;27;20054;-71
2022/01/07 11:28:37;;;;;;;20.80;8.70;;;4.80;99.90;;;;;;5076989;28;270102;-70
2022/01/07 11:31:05;;;;;;;26.13;11.32;;;4.90;99.90;;;;;;5099581;28;20047;-70
2022/01/07 11:33:31;;;;;;;24.33;10.13;;;5.10;99.90;;;;;;5097500;28;20042;-70
2022/01/07 11:35:58;;;;;;;23.73;10.77;;;5.20;99.90;;;;;;5077966;28;161099;-70
2022/01/07 11:38:38;;;;;;;23.23;10.77;;;5.30;99.90;;;;;;5100331;28;20132;-70
2022/01/07 11:41:09;;;;;;;20.97;10.53;;;5.40;99.90;;;;;;5074556;28;20047;-72
2022/01/07 11:43:41;;;;;;;20.52;10.77;;;5.40;99.90;;;;;;5083929;27;273631;-71
2022/01/07 11:46:23;;;;;;;18.20;11.25;;;5.30;99.90;;;;;;5112055;27;20065;-71
2022/01/07 11:48:50;;;;;;;18.40;11.55;;;5.30;99.90;;;;;;5091616;28;259875;-70
2022/01/07 11:51:17;;;;;;;19.42;11.13;;;5.30;99.90;;;;;;5093980;28;20048;-71
2022/01/07 11:53:49;;;;;;;21.10;12.15;;;5.30;99.90;;;;;;5087702;27;256525;-71
2022/01/07 11:56:17;;;;;;;23.48;13.55;;;5.30;99.90;;;;;;5096833;28;20046;-71
2022/01/07 11:58:44;;;;;;;24.52;12.85;;;5.20;99.90;;;;;;5089365;27;275295;-71
2022/01/07 12:01:36;;;;;;;24.23;13.52;;;5.20;99.90;;;;;;5082814;28;20542;-70
2022/01/07 12:04:27;;;;;;;26.35;13.95;;;5.30;99.90;;;;;;5074404;27;275339;-70
2022/01/07 12:06:55;;;;;;;24.45;12.80;;;5.40;99.90;;;;;;5101341;28;20056;-70
2022/01/07 12:09:31;;;;;;;23.88;12.52;;;5.40;99.90;;;;;;5093049;27;129023;-71
2022/01/07 12:12:03;;;;;;;22.00;10.32;;;5.40;99.90;;;;;;5111445;27;20055;-70
2022/01/07 12:14:41;;;;;;;20.25;7.50;;;5.40;99.90;;;;;;5089679;27;255054;-71
2022/01/07 12:17:16;;;;;;;16.08;6.72;;;5.30;99.90;;;;;;5085972;28;20527;-71
2022/01/07 12:19:49;;;;;;;15.48;5.10;;;5.40;99.90;;;;;;5084899;28;82273;-71
2022/01/07 12:22:16;;;;;;;12.05;3.17;;;5.30;99.90;;;;;;5093793;28;20411;-71
2022/01/07 12:24:44;;;;;;;11.10;2.92;;;5.40;99.90;;;;;;5091024;27;256701;-71
2022/01/07 12:27:20;;;;;;;12.80;3.60;;;5.40;99.90;;;;;;5109163;27;20157;-71
2022/01/07 12:29:48;;;;;;;14.85;3.95;;;5.30;99.90;;;;;;5087371;27;152656;-71
2022/01/07 12:32:16;;;;;;;12.70;3.42;;;5.20;99.90;;;;;;5100224;28;20047;-72
2022/01/07 12:34:47;;;;;;;17.17;3.10;;;5.20;99.90;;;;;;5112940;27;20058;-73
2022/01/07 12:37:16;;;;;;;14.40;3.58;;;5.10;99.90;;;;;;5105411;28;20530;-72
2022/01/07 12:39:51;;;;;;;10.13;2.80;;;5.00;99.90;;;;;;5092189;27;22258;-72
2022/01/07 12:42:17;;;;;;;17.48;2.67;;;4.90;99.90;;;;;;5099120;28;20058;-71
2022/01/07 12:44:52;;;;;;;11.57;2.15;;;5.00;99.90;;;;;;5089462;27;183158;-70
2022/01/07 12:47:21;;;;;;;19.77;2.60;;;5.30;99.90;;;;;;5109832;27;20396;-70
2022/01/07 12:49:48;;;;;;;14.30;2.53;;;5.80;99.90;;;;;;5092431;27;263253;-70